sensor_id;sensor_type;location;lat;lon;timestamp;P1;durP1;ratioP1;P2;durP2;ratioP2
23684;SDS011;12020;51.384;6.908;2023-10-09T00:02:10;25.40;;;17.42;;
23684;SDS011;12020;51.384;6.908;2023-10-09T00:04:43;23.77;;;16.30;;
23684;SDS011;12020;51.384;6.908;2023-10-09T00:07:11;26.35;;;16.58;;
23684;SDS011;12020;51.384;6.908;2023-10-09T00:09:40;23.25;;;15.90;;
23684;SDS011;12020;51.384;6.908;2023-10-09T00:12:14;20.73;;;14.90;;
23684;SDS011;12020;51.384;6.908;2023-10-09T00:14:49;21.23;;;14.80;;
23684;SDS011;12020;51.384;6.908;2023-10-09T00:17:17;21.40;;;15.25;;
23684;SDS011;12020;51.384;6.908;2023-10-09T00:19:45;23.25;;;14.40;;
23684;SDS011;12020;51.384;6.908;2023-10-09T00:22:17;19.20;;;13.93;;
23684;SDS011;12020;51.384;6.908;2023-10-09T00:24:46;19.80;;;13.25;;
23684;SDS011;12020;51.384;6.908;2023-10-09T00:27:15;19.45;;;14.10;;
23684;SDS011;12020;51.384;6.908;2023-10-09T00:29:47;21.13;;;14.00;;
23684;SDS011;12020;51.384;6.908;2023-10-09T00:32:14;21.23;;;13.80;;
23684;SDS011;12020;51.384;6.908;2023-10-09T00:34:53;17.33;;;13.03;;
23684;SDS011;12020;51.384;6.908;2023-10-09T00:37:29;18.95;;;13.90;;
23684;SDS011;12020;51.384;6.908;2023-10-09T00:40:02;19.67;;;12.83;;
23684;SDS011;12020;51.384;6.908;2023-10-09T00:42:40;18.58;;;12.27;;
23684;SDS011;12020;51.384;6.908;2023-10-09T00:45:13;17.13;;;11.95;;
23684;SDS011;12020;51.384;6.908;2023-10-09T00:47:50;19.27;;;12.75;;
23684;SDS011;12020;51.384;6.908;2023-10-09T00:50:21;16.67;;;12.05;;
23684;SDS011;12020;51.384;6.908;2023-10-09T00:52:51;18.88;;;12.07;;
23684;SDS011;12020;51.384;6.908;2023-10-09T00:55:20;16.40;;;11.80;;
23684;SDS011;12020;51.384;6.908;2023-10-09T00:57:50;16.67;;;11.55;;
23684;SDS011;12020;51.384;6.908;2023-10-09T01:00:26;16.30;;;11.20;;
23684;SDS011;12020;51.384;6.908;2023-10-09T01:03:14;14.27;;;10.50;;
23684;SDS011;12020;51.384;6.908;2023-10-09T01:05:41;15.63;;;10.87;;
23684;SDS011;12020;51.384;6.908;2023-10-09T01:08:25;15.50;;;10.52;;
23684;SDS011;12020;51.384;6.908;2023-10-09T01:11:01;17.38;;;11.32;;
23684;SDS011;12020;51.384;6.908;2023-10-09T01:13:47;15.50;;;11.23;;
23684;SDS011;12020;51.384;6.908;2023-10-09T01:16:19;16.38;;;10.82;;
23684;SDS011;12020;51.384;6.908;2023-10-09T01:18:48;13.95;;;10.27;;
23684;SDS011;12020;51.384;6.908;2023-10-09T01:21:19;14.48;;;10.20;;
23684;SDS011;12020;51.384;6.908;2023-10-09T01:23:53;17.08;;;10.82;;
23684;SDS011;12020;51.384;6.908;2023-10-09T01:26:37;14.13;;;10.40;;
23684;SDS011;12020;51.384;6.908;2023-10-09T01:29:14;16.35;;;10.32;;
23684;SDS011;12020;51.384;6.908;2023-10-09T01:31:45;15.03;;;10.13;;
23684;SDS011;12020;51.384;6.908;2023-10-09T01:34:25;14.40;;;10.27;;
23684;SDS011;12020;51.384;6.908;2023-10-09T01:37:06;12.63;;;9.80;;
23684;SDS011;12020;51.384;6.908;2023-10-09T01:39:48;16.30;;;9.95;;
23684;SDS011;12020;51.384;6.908;2023-10-09T01:42:18;16.15;;;10.40;;
23684;SDS011;12020;51.384;6.908;2023-10-09T01:44:54;17.25;;;10.35;;
23684;SDS011;12020;51.384;6.908;2023-10-09T01:47:20;12.68;;;10.00;;
23684;SDS011;12020;51.384;6.908;2023-10-09T01:49:47;14.95;;;9.98;;
23684;SDS011;12020;51.384;6.908;2023-10-09T01:52:18;16.05;;;10.15;;
23684;SDS011;12020;51.384;6.908;2023-10-09T01:54:46;13.90;;;10.25;;
23684;SDS011;12020;51.384;6.908;2023-10-09T01:57:14;13.40;;;10.77;;
23684;SDS011;12020;51.384;6.908;2023-10-09T01:59:43;14.23;;;9.80;;
23684;SDS011;12020;51.384;6.908;2023-10-09T02:02:11;14.57;;;10.00;;
23684;SDS011;12020;51.384;6.908;2023-10-09T02:05:11;14.63;;;9.75;;
23684;SDS011;12020;51.384;6.908;2023-10-09T02:07:40;15.02;;;10.38;;
23684;SDS011;12020;51.384;6.908;2023-10-09T02:10:11;14.82;;;9.90;;
23684;SDS011;12020;51.384;6.908;2023-10-09T02:12:59;14.05;;;9.90;;
23684;SDS011;12020;51.384;6.908;2023-10-09T02:15:34;14.52;;;10.18;;
23684;SDS011;12020;51.384;6.908;2023-10-09T02:18:08;15.05;;;10.43;;
23684;SDS011;12020;51.384;6.908;2023-10-09T02:21:05;13.77;;;9.83;;
23684;SDS011;12020;51.384;6.908;2023-10-09T02:23:41;13.93;;;10.30;;
23684;SDS011;12020;51.384;6.908;2023-10-09T02:26:10;14.43;;;9.88;;
23684;SDS011;12020;51.384;6.908;2023-10-09T02:28:58;14.23;;;10.05;;
23684;SDS011;12020;51.384;6.908;2023-10-09T02:34:02;13.63;;;9.50;;
23684;SDS011;12020;51.384;6.908;2023-10-09T02:36:31;13.23;;;9.40;;
23684;SDS011;12020;51.384;6.908;2023-10-09T02:38:57;11.82;;;9.82;;
23684;SDS011;12020;51.384;6.908;2023-10-09T02:41:22;13.95;;;9.82;;
23684;SDS011;12020;51.384;6.908;2023-10-09T02:43:53;13.60;;;9.50;;
23684;SDS011;12020;51.384;6.908;2023-10-09T02:46:21;12.32;;;9.07;;
23684;SDS011;12020;51.384;6.908;2023-10-09T02:48:57;14.65;;;9.73;;
23684;SDS011;12020;51.384;6.908;2023-10-09T02:51:24;12.88;;;9.40;;
23684;SDS011;12020;51.384;6.908;2023-10-09T02:53:56;11.35;;;8.82;;
23684;SDS011;12020;51.384;6.908;2023-10-09T02:56:24;13.73;;;9.20;;
23684;SDS011;12020;51.384;6.908;2023-10-09T02:59:09;12.30;;;9.43;;
23684;SDS011;12020;51.384;6.908;2023-10-09T03:01:36;13.87;;;9.37;;
23684;SDS011;12020;51.384;6.908;2023-10-09T03:04:04;13.25;;;9.35;;
23684;SDS011;12020;51.384;6.908;2023-10-09T03:06:31;13.25;;;9.30;;
23684;SDS011;12020;51.384;6.908;2023-10-09T03:09:11;12.32;;;9.23;;
23684;SDS011;12020;51.384;6.908;2023-10-09T03:11:47;12.35;;;8.38;;
23684;SDS011;12020;51.384;6.908;2023-10-09T03:14:20;12.43;;;9.60;;
23684;SDS011;12020;51.384;6.908;2023-10-09T03:16:55;11.18;;;9.07;;
23684;SDS011;12020;51.384;6.908;2023-10-09T03:19:22;12.95;;;9.07;;
23684;SDS011;12020;51.384;6.908;2023-10-09T03:21:54;12.93;;;9.20;;
23684;SDS011;12020;51.384;6.908;2023-10-09T03:24:24;13.38;;;9.43;;
23684;SDS011;12020;51.384;6.908;2023-10-09T03:26:52;12.93;;;9.27;;
23684;SDS011;12020;51.384;6.908;2023-10-09T03:31:50;12.45;;;8.38;;
23684;SDS011;12020;51.384;6.908;2023-10-09T03:34:19;13.52;;;9.07;;
23684;SDS011;12020;51.384;6.908;2023-10-09T03:36:45;12.52;;;8.80;;
23684;SDS011;12020;51.384;6.908;2023-10-09T03:39:13;11.30;;;8.32;;
23684;SDS011;12020;51.384;6.908;2023-10-09T03:41:58;10.48;;;8.25;;
23684;SDS011;12020;51.384;6.908;2023-10-09T03:44:29;11.50;;;8.93;;
23684;SDS011;12020;51.384;6.908;2023-10-09T03:47:01;10.60;;;8.43;;
23684;SDS011;12020;51.384;6.908;2023-10-09T03:49:28;10.37;;;8.50;;
23684;SDS011;12020;51.384;6.908;2023-10-09T03:51:55;12.02;;;8.52;;
23684;SDS011;12020;51.384;6.908;2023-10-09T03:54:21;12.32;;;8.70;;
23684;SDS011;12020;51.384;6.908;2023-10-09T03:56:50;10.43;;;8.80;;
23684;SDS011;12020;51.384;6.908;2023-10-09T03:59:19;12.73;;;8.65;;
23684;SDS011;12020;51.384;6.908;2023-10-09T04:04:19;13.20;;;8.75;;
23684;SDS011;12020;51.384;6.908;2023-10-09T04:06:53;11.52;;;8.13;;
23684;SDS011;12020;51.384;6.908;2023-10-09T04:09:20;13.45;;;8.70;;
23684;SDS011;12020;51.384;6.908;2023-10-09T04:11:52;12.88;;;8.82;;
23684;SDS011;12020;51.384;6.908;2023-10-09T04:14:40;14.03;;;8.43;;
23684;SDS011;12020;51.384;6.908;2023-10-09T04:17:17;11.57;;;8.32;;
23684;SDS011;12020;51.384;6.908;2023-10-09T04:19:56;12.32;;;8.40;;
23684;SDS011;12020;51.384;6.908;2023-10-09T04:22:43;13.07;;;8.93;;
23684;SDS011;12020;51.384;6.908;2023-10-09T04:25:27;10.90;;;8.23;;
23684;SDS011;12020;51.384;6.908;2023-10-09T04:28:16;11.97;;;8.60;;
23684;SDS011;12020;51.384;6.908;2023-10-09T04:30:41;10.83;;;8.03;;
23684;SDS011;12020;51.384;6.908;2023-10-09T04:33:37;11.32;;;8.45;;
23684;SDS011;12020;51.384;6.908;2023-10-09T04:36:08;12.65;;;8.25;;
23684;SDS011;12020;51.384;6.908;2023-10-09T04:39:03;12.02;;;8.93;;
23684;SDS011;12020;51.384;6.908;2023-10-09T04:41:30;12.10;;;9.02;;
23684;SDS011;12020;51.384;6.908;2023-10-09T04:44:17;11.77;;;8.30;;
23684;SDS011;12020;51.384;6.908;2023-10-09T04:46:55;12.88;;;8.40;;
23684;SDS011;12020;51.384;6.908;2023-10-09T04:49:37;11.65;;;8.57;;
23684;SDS011;12020;51.384;6.908;2023-10-09T04:52:16;11.07;;;8.90;;
23684;SDS011;12020;51.384;6.908;2023-10-09T04:54:58;11.23;;;8.35;;
23684;SDS011;12020;51.384;6.908;2023-10-09T04:57:47;13.07;;;9.00;;
23684;SDS011;12020;51.384;6.908;2023-10-09T05:00:27;12.20;;;8.88;;
23684;SDS011;12020;51.384;6.908;2023-10-09T05:02:57;11.68;;;8.73;;
23684;SDS011;12020;51.384;6.908;2023-10-09T05:05:30;11.48;;;8.90;;
23684;SDS011;12020;51.384;6.908;2023-10-09T05:08:13;11.10;;;8.80;;
23684;SDS011;12020;51.384;6.908;2023-10-09T05:13:28;11.25;;;9.57;;
23684;SDS011;12020;51.384;6.908;2023-10-09T05:16:07;12.45;;;9.02;;
23684;SDS011;12020;51.384;6.908;2023-10-09T05:18:58;10.45;;;8.82;;
23684;SDS011;12020;51.384;6.908;2023-10-09T05:21:34;10.07;;;8.52;;
23684;SDS011;12020;51.384;6.908;2023-10-09T05:24:03;12.23;;;8.35;;
23684;SDS011;12020;51.384;6.908;2023-10-09T05:26:56;13.18;;;8.98;;
23684;SDS011;12020;51.384;6.908;2023-10-09T05:29:42;12.43;;;9.10;;
23684;SDS011;12020;51.384;6.908;2023-10-09T05:32:25;12.57;;;8.85;;
23684;SDS011;12020;51.384;6.908;2023-10-09T05:40:26;12.27;;;9.25;;
23684;SDS011;12020;51.384;6.908;2023-10-09T05:42:56;11.98;;;9.27;;
23684;SDS011;12020;51.384;6.908;2023-10-09T05:45:27;13.68;;;9.57;;
23684;SDS011;12020;51.384;6.908;2023-10-09T05:50:43;11.77;;;8.63;;
23684;SDS011;12020;51.384;6.908;2023-10-09T05:53:22;18.45;;;9.10;;
23684;SDS011;12020;51.384;6.908;2023-10-09T05:56:06;11.83;;;8.93;;
23684;SDS011;12020;51.384;6.908;2023-10-09T05:58:52;13.10;;;9.15;;
23684;SDS011;12020;51.384;6.908;2023-10-09T06:01:37;13.10;;;8.98;;
23684;SDS011;12020;51.384;6.908;2023-10-09T06:04:21;13.07;;;9.15;;
23684;SDS011;12020;51.384;6.908;2023-10-09T06:06:59;12.70;;;9.52;;
23684;SDS011;12020;51.384;6.908;2023-10-09T06:09:37;12.40;;;9.68;;
23684;SDS011;12020;51.384;6.908;2023-10-09T06:12:15;10.60;;;8.57;;
23684;SDS011;12020;51.384;6.908;2023-10-09T06:15:14;11.80;;;8.70;;
23684;SDS011;12020;51.384;6.908;2023-10-09T06:18:12;12.63;;;9.13;;
23684;SDS011;12020;51.384;6.908;2023-10-09T06:20:58;12.87;;;9.20;;
23684;SDS011;12020;51.384;6.908;2023-10-09T06:23:30;12.82;;;9.48;;
23684;SDS011;12020;51.384;6.908;2023-10-09T06:26:14;12.68;;;9.45;;
23684;SDS011;12020;51.384;6.908;2023-10-09T06:28:49;13.40;;;9.85;;
23684;SDS011;12020;51.384;6.908;2023-10-09T06:31:35;14.20;;;10.02;;
23684;SDS011;12020;51.384;6.908;2023-10-09T06:34:19;12.27;;;9.43;;
23684;SDS011;12020;51.384;6.908;2023-10-09T06:36:47;14.48;;;9.20;;
23684;SDS011;12020;51.384;6.908;2023-10-09T06:39:18;13.18;;;9.93;;
23684;SDS011;12020;51.384;6.908;2023-10-09T06:42:02;13.20;;;9.48;;
23684;SDS011;12020;51.384;6.908;2023-10-09T06:44:53;12.35;;;9.50;;
23684;SDS011;12020;51.384;6.908;2023-10-09T06:47:18;12.68;;;9.23;;
23684;SDS011;12020;51.384;6.908;2023-10-09T06:49:49;13.20;;;9.27;;
23684;SDS011;12020;51.384;6.908;2023-10-09T06:52:34;12.07;;;8.90;;
23684;SDS011;12020;51.384;6.908;2023-10-09T06:55:38;12.95;;;9.98;;
23684;SDS011;12020;51.384;6.908;2023-10-09T06:58:20;12.63;;;9.65;;
23684;SDS011;12020;51.384;6.908;2023-10-09T07:01:09;13.75;;;9.40;;
23684;SDS011;12020;51.384;6.908;2023-10-09T07:04:01;12.23;;;9.50;;
23684;SDS011;12020;51.384;6.908;2023-10-09T07:07:05;12.13;;;10.10;;
23684;SDS011;12020;51.384;6.908;2023-10-09T07:09:46;12.32;;;9.52;;
23684;SDS011;12020;51.384;6.908;2023-10-09T07:12:34;15.00;;;9.88;;
23684;SDS011;12020;51.384;6.908;2023-10-09T07:15:07;13.25;;;9.73;;
23684;SDS011;12020;51.384;6.908;2023-10-09T07:17:33;11.20;;;9.98;;
23684;SDS011;12020;51.384;6.908;2023-10-09T07:19:59;14.75;;;9.50;;
23684;SDS011;12020;51.384;6.908;2023-10-09T07:23:00;12.37;;;9.60;;
23684;SDS011;12020;51.384;6.908;2023-10-09T07:25:39;12.55;;;9.45;;
23684;SDS011;12020;51.384;6.908;2023-10-09T07:28:20;11.00;;;9.27;;
23684;SDS011;12020;51.384;6.908;2023-10-09T07:31:19;12.88;;;9.90;;
23684;SDS011;12020;51.384;6.908;2023-10-09T07:33:53;13.27;;;9.98;;
23684;SDS011;12020;51.384;6.908;2023-10-09T07:36:22;11.02;;;9.68;;
23684;SDS011;12020;51.384;6.908;2023-10-09T07:39:06;13.68;;;10.07;;
23684;SDS011;12020;51.384;6.908;2023-10-09T07:41:38;11.85;;;9.50;;
23684;SDS011;12020;51.384;6.908;2023-10-09T07:44:10;12.60;;;10.10;;
23684;SDS011;12020;51.384;6.908;2023-10-09T07:46:58;14.13;;;9.80;;
23684;SDS011;12020;51.384;6.908;2023-10-09T07:49:43;12.73;;;10.15;;
23684;SDS011;12020;51.384;6.908;2023-10-09T07:52:16;13.90;;;9.53;;
23684;SDS011;12020;51.384;6.908;2023-10-09T07:54:42;13.97;;;10.20;;
23684;SDS011;12020;51.384;6.908;2023-10-09T07:57:15;12.55;;;10.27;;
23684;SDS011;12020;51.384;6.908;2023-10-09T07:59:42;13.75;;;10.98;;
23684;SDS011;12020;51.384;6.908;2023-10-09T08:02:22;15.05;;;10.88;;
23684;SDS011;12020;51.384;6.908;2023-10-09T08:05:00;12.65;;;10.15;;
23684;SDS011;12020;51.384;6.908;2023-10-09T08:07:44;13.63;;;10.70;;
23684;SDS011;12020;51.384;6.908;2023-10-09T08:10:32;13.85;;;10.65;;
23684;SDS011;12020;51.384;6.908;2023-10-09T08:12:58;12.87;;;10.17;;
23684;SDS011;12020;51.384;6.908;2023-10-09T08:15:24;14.00;;;11.02;;
23684;SDS011;12020;51.384;6.908;2023-10-09T08:17:59;12.97;;;10.70;;
23684;SDS011;12020;51.384;6.908;2023-10-09T08:20:43;13.52;;;10.52;;
23684;SDS011;12020;51.384;6.908;2023-10-09T08:23:27;13.20;;;10.70;;
23684;SDS011;12020;51.384;6.908;2023-10-09T08:26:13;14.95;;;11.00;;
23684;SDS011;12020;51.384;6.908;2023-10-09T08:31:11;14.15;;;10.60;;
23684;SDS011;12020;51.384;6.908;2023-10-09T08:33:55;13.98;;;10.73;;
23684;SDS011;12020;51.384;6.908;2023-10-09T08:36:23;12.35;;;10.85;;
23684;SDS011;12020;51.384;6.908;2023-10-09T08:38:55;17.02;;;11.05;;
23684;SDS011;12020;51.384;6.908;2023-10-09T08:41:23;12.77;;;10.60;;
23684;SDS011;12020;51.384;6.908;2023-10-09T08:43:55;15.18;;;10.70;;
23684;SDS011;12020;51.384;6.908;2023-10-09T08:46:25;12.63;;;10.37;;
23684;SDS011;12020;51.384;6.908;2023-10-09T08:48:52;13.02;;;10.93;;
23684;SDS011;12020;51.384;6.908;2023-10-09T08:51:20;13.50;;;11.07;;
23684;SDS011;12020;51.384;6.908;2023-10-09T08:53:46;13.38;;;11.00;;
23684;SDS011;12020;51.384;6.908;2023-10-09T08:56:13;13.63;;;10.90;;
23684;SDS011;12020;51.384;6.908;2023-10-09T08:58:41;13.80;;;11.07;;
23684;SDS011;12020;51.384;6.908;2023-10-09T09:01:06;14.48;;;10.85;;
23684;SDS011;12020;51.384;6.908;2023-10-09T09:03:39;17.20;;;11.52;;
23684;SDS011;12020;51.384;6.908;2023-10-09T09:06:09;13.32;;;11.13;;
23684;SDS011;12020;51.384;6.908;2023-10-09T09:08:35;17.00;;;11.75;;
23684;SDS011;12020;51.384;6.908;2023-10-09T09:11:02;13.83;;;11.23;;
23684;SDS011;12020;51.384;6.908;2023-10-09T09:13:44;13.82;;;10.90;;
23684;SDS011;12020;51.384;6.908;2023-10-09T09:16:18;14.05;;;10.82;;
23684;SDS011;12020;51.384;6.908;2023-10-09T09:19:01;15.60;;;10.60;;
23684;SDS011;12020;51.384;6.908;2023-10-09T09:21:48;14.82;;;10.70;;
23684;SDS011;12020;51.384;6.908;2023-10-09T09:24:19;14.40;;;10.63;;
23684;SDS011;12020;51.384;6.908;2023-10-09T09:26:52;12.57;;;10.25;;
23684;SDS011;12020;51.384;6.908;2023-10-09T09:32:10;15.68;;;9.80;;
23684;SDS011;12020;51.384;6.908;2023-10-09T09:34:46;12.77;;;9.57;;
23684;SDS011;12020;51.384;6.908;2023-10-09T09:37:28;11.88;;;9.60;;
23684;SDS011;12020;51.384;6.908;2023-10-09T09:39:57;12.35;;;9.75;;
23684;SDS011;12020;51.384;6.908;2023-10-09T09:42:25;11.32;;;9.32;;
23684;SDS011;12020;51.384;6.908;2023-10-09T09:44:52;14.23;;;9.40;;
23684;SDS011;12020;51.384;6.908;2023-10-09T09:47:20;12.80;;;10.13;;
23684;SDS011;12020;51.384;6.908;2023-10-09T09:49:53;13.82;;;9.70;;
23684;SDS011;12020;51.384;6.908;2023-10-09T09:52:25;14.13;;;10.05;;
23684;SDS011;12020;51.384;6.908;2023-10-09T09:54:53;12.95;;;10.40;;
23684;SDS011;12020;51.384;6.908;2023-10-09T09:57:19;14.82;;;10.38;;
23684;SDS011;12020;51.384;6.908;2023-10-09T09:59:51;13.68;;;10.10;;
23684;SDS011;12020;51.384;6.908;2023-10-09T10:02:32;14.00;;;9.87;;
23684;SDS011;12020;51.384;6.908;2023-10-09T10:05:02;16.10;;;10.20;;
23684;SDS011;12020;51.384;6.908;2023-10-09T10:07:32;13.73;;;10.13;;
23684;SDS011;12020;51.384;6.908;2023-10-09T10:12:58;14.95;;;10.52;;
23684;SDS011;12020;51.384;6.908;2023-10-09T10:18:21;13.40;;;9.88;;
23684;SDS011;12020;51.384;6.908;2023-10-09T10:21:09;14.77;;;9.98;;
23684;SDS011;12020;51.384;6.908;2023-10-09T10:23:41;14.23;;;9.80;;
23684;SDS011;12020;51.384;6.908;2023-10-09T10:26:16;14.63;;;10.55;;
23684;SDS011;12020;51.384;6.908;2023-10-09T10:31:52;14.55;;;9.23;;
23684;SDS011;12020;51.384;6.908;2023-10-09T10:34:25;12.47;;;9.20;;
23684;SDS011;12020;51.384;6.908;2023-10-09T10:36:51;12.77;;;9.40;;
23684;SDS011;12020;51.384;6.908;2023-10-09T10:39:23;12.52;;;9.32;;
23684;SDS011;12020;51.384;6.908;2023-10-09T10:42:10;13.80;;;9.65;;
23684;SDS011;12020;51.384;6.908;2023-10-09T10:45:01;13.35;;;9.52;;
23684;SDS011;12020;51.384;6.908;2023-10-09T10:47:48;14.10;;;9.87;;
23684;SDS011;12020;51.384;6.908;2023-10-09T10:50:17;13.27;;;9.37;;
23684;SDS011;12020;51.384;6.908;2023-10-09T10:53:13;13.00;;;9.50;;
23684;SDS011;12020;51.384;6.908;2023-10-09T10:55:39;13.02;;;10.13;;
23684;SDS011;12020;51.384;6.908;2023-10-09T10:58:24;12.73;;;10.05;;
23684;SDS011;12020;51.384;6.908;2023-10-09T11:01:01;12.93;;;10.00;;
23684;SDS011;12020;51.384;6.908;2023-10-09T11:03:37;13.18;;;9.50;;
23684;SDS011;12020;51.384;6.908;2023-10-09T11:06:30;16.48;;;10.52;;
23684;SDS011;12020;51.384;6.908;2023-10-09T11:09:03;14.43;;;10.15;;
23684;SDS011;12020;51.384;6.908;2023-10-09T11:11:51;13.98;;;9.90;;
23684;SDS011;12020;51.384;6.908;2023-10-09T11:14:46;17.17;;;10.52;;
23684;SDS011;12020;51.384;6.908;2023-10-09T11:17:31;14.75;;;10.48;;
23684;SDS011;12020;51.384;6.908;2023-10-09T11:19:57;14.45;;;10.30;;
23684;SDS011;12020;51.384;6.908;2023-10-09T11:22:29;14.45;;;9.93;;
23684;SDS011;12020;51.384;6.908;2023-10-09T11:25:01;14.10;;;9.48;;
23684;SDS011;12020;51.384;6.908;2023-10-09T11:27:43;13.80;;;9.60;;
23684;SDS011;12020;51.384;6.908;2023-10-09T11:30:15;14.80;;;9.70;;
23684;SDS011;12020;51.384;6.908;2023-10-09T11:32:49;13.10;;;9.40;;
23684;SDS011;12020;51.384;6.908;2023-10-09T11:35:15;12.70;;;9.50;;
23684;SDS011;12020;51.384;6.908;2023-10-09T11:37:56;12.88;;;8.85;;
23684;SDS011;12020;51.384;6.908;2023-10-09T11:40:33;17.05;;;10.98;;
23684;SDS011;12020;51.384;6.908;2023-10-09T11:43:14;15.95;;;11.07;;
23684;SDS011;12020;51.384;6.908;2023-10-09T11:45:40;14.98;;;10.48;;
23684;SDS011;12020;51.384;6.908;2023-10-09T11:48:19;15.07;;;10.02;;
23684;SDS011;12020;51.384;6.908;2023-10-09T11:50:57;14.98;;;10.57;;
23684;SDS011;12020;51.384;6.908;2023-10-09T11:53:39;14.38;;;10.38;;
23684;SDS011;12020;51.384;6.908;2023-10-09T11:56:08;15.07;;;10.65;;
23684;SDS011;12020;51.384;6.908;2023-10-09T11:58:39;17.25;;;10.43;;
23684;SDS011;12020;51.384;6.908;2023-10-09T12:01:14;15.57;;;10.27;;
23684;SDS011;12020;51.384;6.908;2023-10-09T12:03:45;15.55;;;9.50;;
23684;SDS011;12020;51.384;6.908;2023-10-09T12:06:19;16.27;;;11.07;;
23684;SDS011;12020;51.384;6.908;2023-10-09T12:08:49;14.73;;;9.52;;
23684;SDS011;12020;51.384;6.908;2023-10-09T12:11:15;13.50;;;10.35;;
23684;SDS011;12020;51.384;6.908;2023-10-09T12:13:50;14.70;;;10.52;;
23684;SDS011;12020;51.384;6.908;2023-10-09T12:16:21;14.25;;;10.25;;
23684;SDS011;12020;51.384;6.908;2023-10-09T12:18:52;16.93;;;10.43;;
23684;SDS011;12020;51.384;6.908;2023-10-09T12:21:19;15.85;;;10.20;;
23684;SDS011;12020;51.384;6.908;2023-10-09T12:26:14;13.32;;;9.82;;
23684;SDS011;12020;51.384;6.908;2023-10-09T12:28:41;13.00;;;10.40;;
23684;SDS011;12020;51.384;6.908;2023-10-09T12:31:11;16.58;;;10.38;;
23684;SDS011;12020;51.384;6.908;2023-10-09T12:33:42;13.75;;;10.60;;
23684;SDS011;12020;51.384;6.908;2023-10-09T12:36:11;14.70;;;9.65;;
23684;SDS011;12020;51.384;6.908;2023-10-09T12:38:47;13.98;;;10.40;;
23684;SDS011;12020;51.384;6.908;2023-10-09T12:41:23;13.65;;;10.20;;
23684;SDS011;12020;51.384;6.908;2023-10-09T12:43:53;15.80;;;11.32;;
23684;SDS011;12020;51.384;6.908;2023-10-09T12:46:20;16.87;;;10.90;;
23684;SDS011;12020;51.384;6.908;2023-10-09T12:48:54;16.67;;;10.73;;
23684;SDS011;12020;51.384;6.908;2023-10-09T12:51:21;15.25;;;11.40;;
23684;SDS011;12020;51.384;6.908;2023-10-09T12:53:50;14.57;;;10.90;;
23684;SDS011;12020;51.384;6.908;2023-10-09T12:56:25;16.93;;;11.20;;
23684;SDS011;12020;51.384;6.908;2023-10-09T12:59:01;18.17;;;11.52;;
23684;SDS011;12020;51.384;6.908;2023-10-09T13:01:30;14.67;;;10.40;;
23684;SDS011;12020;51.384;6.908;2023-10-09T13:04:00;13.43;;;9.88;;
23684;SDS011;12020;51.384;6.908;2023-10-09T13:06:26;13.88;;;10.20;;
23684;SDS011;12020;51.384;6.908;2023-10-09T13:08:52;16.90;;;10.35;;
23684;SDS011;12020;51.384;6.908;2023-10-09T13:11:21;14.18;;;10.30;;
23684;SDS011;12020;51.384;6.908;2023-10-09T13:13:51;15.55;;;11.13;;
23684;SDS011;12020;51.384;6.908;2023-10-09T13:16:20;15.15;;;11.05;;
23684;SDS011;12020;51.384;6.908;2023-10-09T13:18:48;16.05;;;11.40;;
23684;SDS011;12020;51.384;6.908;2023-10-09T13:21:22;14.55;;;10.82;;
23684;SDS011;12020;51.384;6.908;2023-10-09T13:23:49;14.23;;;10.63;;
23684;SDS011;12020;51.384;6.908;2023-10-09T13:26:19;15.45;;;11.88;;
23684;SDS011;12020;51.384;6.908;2023-10-09T13:28:53;15.02;;;10.30;;
23684;SDS011;12020;51.384;6.908;2023-10-09T13:31:21;13.47;;;10.70;;
23684;SDS011;12020;51.384;6.908;2023-10-09T13:33:50;14.85;;;11.38;;
23684;SDS011;12020;51.384;6.908;2023-10-09T13:36:20;15.45;;;11.25;;
23684;SDS011;12020;51.384;6.908;2023-10-09T13:38:53;16.05;;;11.50;;
23684;SDS011;12020;51.384;6.908;2023-10-09T13:41:20;14.30;;;11.03;;
23684;SDS011;12020;51.384;6.908;2023-10-09T13:43:46;13.40;;;10.67;;
23684;SDS011;12020;51.384;6.908;2023-10-09T13:46:11;14.17;;;11.37;;
23684;SDS011;12020;51.384;6.908;2023-10-09T13:48:41;16.45;;;12.30;;
23684;SDS011;12020;51.384;6.908;2023-10-09T13:51:09;17.70;;;13.32;;
23684;SDS011;12020;51.384;6.908;2023-10-09T13:53:48;17.60;;;12.50;;
23684;SDS011;12020;51.384;6.908;2023-10-09T13:56:20;18.77;;;13.93;;
23684;SDS011;12020;51.384;6.908;2023-10-09T13:58:52;22.67;;;14.30;;
23684;SDS011;12020;51.384;6.908;2023-10-09T14:01:20;18.77;;;13.20;;
23684;SDS011;12020;51.384;6.908;2023-10-09T14:03:58;18.65;;;13.07;;
23684;SDS011;12020;51.384;6.908;2023-10-09T14:06:25;19.20;;;12.63;;
23684;SDS011;12020;51.384;6.908;2023-10-09T14:09:02;18.88;;;13.40;;
23684;SDS011;12020;51.384;6.908;2023-10-09T14:11:29;18.33;;;13.55;;
23684;SDS011;12020;51.384;6.908;2023-10-09T14:13:55;21.23;;;13.35;;
23684;SDS011;12020;51.384;6.908;2023-10-09T14:16:21;17.43;;;13.73;;
23684;SDS011;12020;51.384;6.908;2023-10-09T14:18:53;18.23;;;13.73;;
23684;SDS011;12020;51.384;6.908;2023-10-09T14:21:22;18.17;;;13.18;;
23684;SDS011;12020;51.384;6.908;2023-10-09T14:23:50;18.73;;;12.48;;
23684;SDS011;12020;51.384;6.908;2023-10-09T14:26:21;18.63;;;12.52;;
23684;SDS011;12020;51.384;6.908;2023-10-09T14:28:48;18.02;;;12.85;;
23684;SDS011;12020;51.384;6.908;2023-10-09T14:31:15;16.38;;;11.85;;
23684;SDS011;12020;51.384;6.908;2023-10-09T14:33:47;17.40;;;12.60;;
23684;SDS011;12020;51.384;6.908;2023-10-09T14:36:16;16.33;;;12.30;;
23684;SDS011;12020;51.384;6.908;2023-10-09T14:38:43;15.60;;;12.00;;
23684;SDS011;12020;51.384;6.908;2023-10-09T14:41:11;16.13;;;12.18;;
23684;SDS011;12020;51.384;6.908;2023-10-09T14:43:38;14.95;;;12.10;;
23684;SDS011;12020;51.384;6.908;2023-10-09T14:46:04;17.02;;;12.35;;
23684;SDS011;12020;51.384;6.908;2023-10-09T14:48:36;17.40;;;12.32;;
23684;SDS011;12020;51.384;6.908;2023-10-09T14:51:03;17.50;;;12.97;;
23684;SDS011;12020;51.384;6.908;2023-10-09T14:53:32;16.73;;;13.07;;
23684;SDS011;12020;51.384;6.908;2023-10-09T14:55:59;14.93;;;13.00;;
23684;SDS011;12020;51.384;6.908;2023-10-09T14:58:33;18.43;;;13.63;;
23684;SDS011;12020;51.384;6.908;2023-10-09T15:01:09;19.17;;;14.18;;
23684;SDS011;12020;51.384;6.908;2023-10-09T15:03:35;20.58;;;13.60;;
23684;SDS011;12020;51.384;6.908;2023-10-09T15:06:05;17.55;;;13.65;;
23684;SDS011;12020;51.384;6.908;2023-10-09T15:08:36;17.42;;;14.00;;
23684;SDS011;12020;51.384;6.908;2023-10-09T15:11:01;17.45;;;13.75;;
23684;SDS011;12020;51.384;6.908;2023-10-09T15:13:27;17.77;;;13.90;;
23684;SDS011;12020;51.384;6.908;2023-10-09T15:15:53;18.58;;;14.00;;
23684;SDS011;12020;51.384;6.908;2023-10-09T15:18:20;20.70;;;14.05;;
23684;SDS011;12020;51.384;6.908;2023-10-09T15:20:46;18.30;;;13.35;;
23684;SDS011;12020;51.384;6.908;2023-10-09T15:23:12;15.10;;;11.82;;
23684;SDS011;12020;51.384;6.908;2023-10-09T15:25:38;16.75;;;12.60;;
23684;SDS011;12020;51.384;6.908;2023-10-09T15:28:07;17.80;;;13.70;;
23684;SDS011;12020;51.384;6.908;2023-10-09T15:30:34;19.08;;;13.63;;
23684;SDS011;12020;51.384;6.908;2023-10-09T15:33:03;16.80;;;13.55;;
23684;SDS011;12020;51.384;6.908;2023-10-09T15:35:33;18.40;;;13.40;;
23684;SDS011;12020;51.384;6.908;2023-10-09T15:37:59;18.13;;;13.37;;
23684;SDS011;12020;51.384;6.908;2023-10-09T15:40:29;19.33;;;13.40;;
23684;SDS011;12020;51.384;6.908;2023-10-09T15:42:58;17.02;;;13.18;;